createdAt,value
2022-08-05T00:01:56.898Z,92.93
2022-08-05T00:04:38.116Z,92.49
2022-08-05T00:07:26.789Z,92.66
2022-08-05T00:09:59.952Z,93.10
2022-08-05T00:12:29.673Z,93.40
2022-08-05T00:15:58.258Z,93.80
2022-08-05T00:17:51.678Z,94.27
2022-08-05T00:20:22.049Z,94.31
2022-08-05T00:23:02.557Z,94.42
2022-08-05T00:25:46.099Z,94.45
2022-08-05T00:28:16.103Z,94.24
2022-08-05T00:31:04.255Z,93.98
2022-08-05T00:34:55.858Z,94.10
2022-08-05T00:37:13.074Z,94.15
2022-08-05T00:39:14.805Z,94.25
2022-08-05T00:41:55.211Z,94.14
2022-08-05T00:44:30.826Z,94.36
2022-08-05T00:47:05.890Z,94.29
2022-08-05T00:49:44.665Z,94.08
2022-08-05T00:52:28.342Z,93.74
2022-08-05T00:54:59.059Z,93.42
2022-08-05T00:57:31.807Z,93.01
2022-08-05T01:00:10.996Z,92.83
2022-08-05T01:02:43.613Z,92.91
2022-08-05T01:05:13.812Z,92.94
2022-08-05T01:08:39.878Z,92.65
2022-08-05T01:10:39.751Z,93.27
2022-08-05T01:13:57.118Z,93.32
2022-08-05T01:16:26.458Z,93.46
2022-08-05T01:19:07.051Z,93.40
2022-08-05T01:21:54.110Z,93.24
2022-08-05T01:24:44.002Z,92.91
2022-08-05T01:27:28.437Z,93.11
2022-08-05T01:30:12.450Z,93.28
2022-08-05T01:32:51.506Z,93.54
2022-08-05T01:35:52.107Z,93.21
2022-08-05T01:38:24.767Z,93.17
2022-08-05T01:41:01.907Z,93.47
2022-08-05T01:43:32.532Z,93.35
2022-08-05T01:46:07.543Z,93.40
2022-08-05T01:48:49.591Z,93.19
2022-08-05T01:51:21.688Z,93.60
2022-08-05T01:53:58.535Z,93.34
2022-08-05T01:58:11.544Z,93.49
2022-08-05T01:59:26.451Z,93.20
2022-08-05T02:02:01.663Z,92.96
2022-08-05T02:04:36.907Z,92.63
2022-08-05T02:07:10.464Z,92.36
2022-08-05T02:09:51.598Z,92.37
2022-08-05T02:12:28.508Z,92.56
2022-08-05T02:15:12.302Z,92.94
2022-08-05T02:18:31.343Z,92.74
2022-08-05T02:20:48.928Z,92.74
2022-08-05T02:23:23.144Z,92.63
2022-08-05T02:25:55.137Z,92.68
2022-08-05T02:28:31.237Z,92.67
2022-08-05T02:31:14.352Z,92.85
2022-08-05T02:33:57.215Z,92.67
2022-08-05T02:36:31.451Z,92.68
2022-08-05T02:39:04.651Z,92.72
2022-08-05T02:41:43.424Z,92.46
2022-08-05T02:44:31.205Z,92.65
2022-08-05T02:47:02.047Z,92.93
2022-08-05T02:49:40.582Z,93.23
2022-08-05T02:52:25.911Z,93.31
2022-08-05T02:55:05.164Z,93.87
2022-08-05T02:58:09.763Z,94.04
2022-08-05T03:00:27.094Z,94.21
2022-08-05T03:02:59.340Z,94.00
2022-08-05T03:06:54.481Z,93.97
2022-08-05T03:08:27.020Z,94.01
2022-08-05T03:11:45.949Z,94.06
2022-08-05T03:13:52.223Z,94.05
2022-08-05T03:16:32.521Z,94.40
2022-08-05T03:19:16.855Z,94.56
2022-08-05T03:21:52.584Z,94.94
2022-08-05T03:24:26.856Z,95.19
2022-08-05T03:27:00.214Z,95.33
2022-08-05T03:29:45.894Z,95.45
2022-08-05T03:32:21.431Z,95.61
2022-08-05T03:35:01.368Z,95.54
2022-08-05T03:37:45.649Z,95.33
2022-08-05T03:40:24.219Z,95.38
2022-08-05T03:43:58.270Z,95.51
2022-08-05T03:45:57.347Z,95.48
2022-08-05T03:48:29.189Z,95.61
2022-08-05T03:51:06.954Z,95.63
2022-08-05T03:55:50.017Z,95.61
2022-08-05T03:56:52.671Z,95.60
2022-08-05T03:59:29.234Z,95.50
2022-08-05T04:02:39.153Z,95.82
2022-08-05T04:05:10.326Z,96.31
2022-08-05T04:07:58.778Z,96.61
2022-08-05T04:10:37.729Z,97.19
2022-08-05T04:13:09.298Z,97.26
2022-08-05T04:15:39.562Z,97.28
2022-08-05T04:18:29.759Z,97.50
2022-08-05T04:21:00.839Z,97.49
2022-08-05T04:24:05.416Z,97.38
2022-08-05T04:26:24.727Z,97.27
2022-08-05T04:28:54.686Z,97.37
2022-08-05T04:31:27.575Z,97.23
2022-08-05T04:34:18.751Z,97.16
2022-08-05T04:36:58.096Z,97.46
2022-08-05T04:39:27.924Z,97.86
2022-08-05T04:42:00.416Z,98.09
2022-08-05T04:44:31.652Z,98.31
2022-08-05T04:47:09.817Z,98.31
2022-08-05T04:50:01.474Z,98.59
2022-08-05T04:52:33.391Z,98.87
2022-08-05T04:55:14.008Z,98.79
2022-08-05T04:57:51.638Z,98.50
2022-08-05T05:00:24.312Z,98.54
2022-08-05T05:02:54.289Z,98.91
2022-08-05T05:05:28.585Z,98.87
2022-08-05T05:08:02.846Z,98.86
2022-08-05T05:10:34.020Z,98.86
2022-08-05T05:13:06.376Z,98.82
2022-08-05T05:15:57.560Z,98.49
2022-08-05T05:18:28.737Z,98.39
2022-08-05T05:21:04.367Z,98.56
2022-08-05T05:23:39.088Z,98.63
2022-08-05T05:26:28.644Z,98.68
2022-08-05T05:29:14.493Z,98.52
2022-08-05T05:31:46.208Z,98.57
2022-08-05T05:34:21.181Z,98.55
2022-08-05T05:36:56.391Z,98.06
2022-08-05T05:39:26.847Z,98.05
2022-08-05T05:42:04.338Z,98.04
2022-08-05T05:44:37.721Z,98.15
2022-08-05T05:47:21.714Z,98.24
2022-08-05T05:49:56.943Z,98.11
2022-08-05T05:52:34.655Z,98.17
2022-08-05T05:55:13.716Z,99.14
2022-08-05T05:57:53.009Z,98.18
2022-08-05T06:00:31.308Z,96.89
2022-08-05T06:03:01.359Z,95.71
2022-08-05T06:05:31.947Z,94.57
2022-08-05T06:08:03.811Z,92.31
2022-08-05T06:10:36.340Z,88.53
2022-08-05T06:13:09.575Z,87.58
2022-08-05T06:16:29.331Z,85.91
2022-08-05T06:18:32.318Z,85.13
2022-08-05T06:21:07.946Z,84.88
2022-08-05T06:23:46.840Z,84.20
2022-08-05T06:26:23.904Z,83.15
2022-08-05T06:28:54.745Z,82.51
2022-08-05T06:31:32.026Z,81.84
2022-08-05T06:34:03.022Z,79.73
2022-08-05T06:36:58.160Z,79.19
2022-08-05T06:39:28.039Z,77.22
2022-08-05T06:41:59.276Z,76.88
2022-08-05T06:44:30.237Z,76.38
2022-08-05T06:47:03.005Z,76.19
2022-08-05T06:50:00.093Z,75.53
2022-08-05T06:52:36.693Z,76.20
2022-08-05T06:55:08.723Z,77.35
2022-08-05T06:57:57.677Z,78.18
2022-08-05T07:00:29.640Z,77.93
2022-08-05T07:03:02.312Z,78.64
2022-08-05T07:05:37.689Z,78.67
2022-08-05T07:08:11.277Z,79.21
2022-08-05T07:10:53.351Z,79.63
2022-08-05T07:13:56.669Z,80.18
2022-08-05T07:17:56.763Z,79.54
2022-08-05T07:20:10.927Z,78.43
2022-08-05T07:22:29.011Z,77.33
2022-08-05T07:25:23.802Z,75.80
2022-08-05T07:27:58.445Z,74.99
2022-08-05T07:30:34.181Z,74.51
2022-08-05T07:33:09.030Z,73.99
2022-08-05T07:36:04.909Z,73.58
2022-08-05T07:38:34.938Z,73.09
2022-08-05T07:42:08.805Z,72.41
2022-08-05T07:43:57.776Z,72.88
2022-08-05T07:46:28.752Z,74.13
2022-08-05T07:49:03.125Z,73.72
2022-08-05T07:51:53.976Z,72.61
2022-08-05T07:54:31.668Z,73.11
2022-08-05T07:57:22.438Z,72.03
2022-08-05T07:59:54.097Z,71.81
2022-08-05T08:02:31.220Z,72.26
2022-08-05T08:05:18.842Z,71.87
2022-08-05T08:08:00.295Z,72.03
2022-08-05T08:10:30.810Z,73.59
2022-08-05T08:13:01.837Z,74.23
2022-08-05T08:16:35.791Z,73.29
2022-08-05T08:18:21.732Z,72.40
2022-08-05T08:21:02.729Z,73.04
2022-08-05T08:24:02.806Z,71.66
2022-08-05T08:26:29.418Z,71.72
2022-08-05T08:29:21.756Z,72.96
2022-08-05T08:31:50.668Z,74.11
2022-08-05T08:34:30.775Z,73.68
2022-08-05T08:37:05.267Z,74.12
2022-08-05T08:39:38.414Z,74.78
2022-08-05T08:42:46.930Z,74.07
2022-08-05T08:45:21.320Z,73.76
2022-08-05T08:48:07.517Z,73.84
2022-08-05T08:51:07.763Z,72.64
2022-08-05T08:53:45.217Z,72.01
2022-08-05T08:56:18.187Z,72.98
2022-08-05T08:58:48.648Z,69.75
2022-08-05T09:01:19.383Z,70.10
2022-08-05T09:03:54.362Z,70.64
2022-08-05T09:06:29.919Z,71.32
2022-08-05T09:09:01.728Z,71.03
2022-08-05T09:11:52.076Z,68.27
2022-08-05T09:14:57.955Z,70.28
2022-08-05T09:17:43.173Z,69.21
2022-08-05T09:20:08.413Z,68.85
2022-08-05T09:23:18.451Z,68.23
2022-08-05T09:26:01.307Z,68.54
2022-08-05T09:28:37.672Z,67.10
2022-08-05T09:31:22.440Z,66.61
2022-08-05T09:34:01.607Z,67.07
2022-08-05T09:36:45.923Z,67.71
2022-08-05T09:39:27.695Z,68.14
2022-08-05T09:42:17.377Z,68.08
2022-08-05T09:45:03.230Z,65.21
2022-08-05T09:47:56.473Z,66.04
2022-08-05T09:50:44.711Z,67.03
2022-08-05T09:53:25.895Z,67.65
2022-08-05T09:56:13.369Z,66.40
2022-08-05T09:58:43.692Z,67.39
2022-08-05T10:01:31.623Z,67.63
2022-08-05T10:04:10.662Z,66.62
2022-08-05T10:06:41.217Z,65.49
2022-08-05T10:09:27.329Z,66.20
2022-08-05T10:12:18.721Z,66.05
2022-08-05T10:15:17.305Z,67.37
2022-08-05T10:18:10.146Z,67.76
2022-08-05T10:20:42.816Z,65.40
2022-08-05T10:23:34.730Z,64.22
2022-08-05T10:26:08.219Z,65.17
2022-08-05T10:28:46.385Z,65.66
2022-08-05T10:32:50.604Z,65.22
2022-08-05T10:34:11.742Z,65.38
2022-08-05T10:36:43.979Z,65.31
2022-08-05T10:39:24.522Z,65.87
2022-08-05T10:42:15.755Z,63.42
2022-08-05T10:44:49.451Z,64.42
2022-08-05T10:47:26.973Z,64.05
2022-08-05T10:50:20.606Z,63.24
2022-08-05T10:53:02.726Z,63.31
2022-08-05T10:56:03.242Z,63.20
2022-08-05T10:58:23.671Z,63.06
2022-08-05T11:01:13.487Z,63.89
2022-08-05T11:04:03.380Z,64.72
2022-08-05T11:07:00.622Z,65.35
2022-08-05T11:09:46.559Z,66.06
2022-08-05T11:12:50.506Z,66.44
2022-08-05T11:15:59.546Z,66.07
2022-08-05T11:18:34.499Z,67.20
2022-08-05T11:21:11.737Z,66.70
2022-08-05T11:24:05.192Z,66.89
2022-08-05T11:26:49.472Z,68.20
2022-08-05T11:29:40.384Z,67.96
2022-08-05T11:32:29.231Z,67.80
2022-08-05T11:35:00.464Z,68.22
2022-08-05T11:38:26.248Z,69.67
2022-08-05T11:41:34.481Z,68.85
2022-08-05T11:44:07.080Z,69.18
2022-08-05T11:47:09.436Z,68.52
2022-08-05T11:49:33.870Z,68.74
2022-08-05T11:52:11.451Z,70.71
2022-08-05T11:54:43.546Z,70.98
2022-08-05T11:57:24.471Z,68.77
2022-08-05T11:59:55.912Z,69.16
2022-08-05T12:02:33.006Z,70.23
2022-08-05T12:05:08.144Z,69.01
2022-08-05T12:08:09.013Z,69.93
2022-08-05T12:10:44.961Z,68.58
2022-08-05T12:13:47.602Z,69.70
2022-08-05T12:16:14.599Z,69.33
2022-08-05T12:18:49.579Z,69.82
2022-08-05T12:21:26.800Z,69.66
2022-08-05T12:24:05.034Z,69.66
2022-08-05T12:26:36.892Z,67.53
2022-08-05T12:29:11.882Z,67.55
2022-08-05T12:31:53.619Z,67.64
2022-08-05T12:34:28.405Z,68.50
2022-08-05T12:36:59.928Z,69.45
2022-08-05T12:39:37.308Z,69.51
2022-08-05T12:42:14.767Z,69.42
2022-08-05T12:44:48.528Z,70.81
2022-08-05T12:47:31.057Z,70.22
2022-08-05T12:50:06.251Z,71.31
2022-08-05T12:52:42.198Z,72.79
2022-08-05T12:55:25.493Z,72.51
2022-08-05T12:58:48.882Z,70.64
2022-08-05T13:02:01.593Z,68.72
2022-08-05T13:03:43.228Z,68.73
2022-08-05T13:06:19.772Z,69.33
2022-08-05T13:08:52.401Z,68.79
2022-08-05T13:11:59.740Z,69.50
2022-08-05T13:14:19.533Z,68.20
2022-08-05T13:16:56.554Z,67.91
2022-08-05T13:19:51.680Z,67.94
2022-08-05T13:22:29.120Z,69.46
2022-08-05T13:25:05.415Z,67.78
2022-08-05T13:27:39.270Z,67.18
2022-08-05T13:30:32.978Z,68.32
2022-08-05T13:33:04.183Z,68.36
2022-08-05T13:35:47.579Z,66.93
2022-08-05T13:38:30.529Z,68.96
2022-08-05T13:41:01.504Z,71.47
2022-08-05T13:43:44.956Z,72.68
2022-08-05T13:46:37.800Z,73.18
2022-08-05T13:49:15.461Z,74.96
2022-08-05T13:51:46.393Z,75.47
2022-08-05T13:54:17.223Z,74.11
2022-08-05T13:56:55.310Z,74.97
2022-08-05T13:59:27.177Z,73.86
2022-08-05T14:02:00.298Z,71.64
2022-08-05T14:04:50.225Z,72.09
2022-08-05T14:07:26.538Z,70.82
2022-08-05T14:10:19.097Z,70.59
2022-08-05T14:12:59.512Z,69.95
2022-08-05T14:16:05.294Z,70.79
2022-08-05T14:18:23.458Z,71.43
2022-08-05T14:20:56.418Z,71.84
2022-08-05T14:23:28.813Z,71.52
2022-08-05T14:26:06.605Z,70.36
2022-08-05T14:28:36.393Z,69.85
2022-08-05T14:32:02.804Z,67.74
2022-08-05T14:34:12.462Z,67.70
2022-08-05T14:36:44.745Z,66.43
2022-08-05T14:39:23.595Z,65.37
2022-08-05T14:42:19.279Z,65.78
2022-08-05T14:44:43.381Z,66.94
2022-08-05T14:47:13.082Z,66.39
2022-08-05T14:49:59.410Z,66.73
2022-08-05T14:52:51.693Z,64.89
2022-08-05T14:55:22.599Z,66.43
2022-08-05T14:57:54.323Z,66.63
2022-08-05T15:00:29.387Z,67.76
2022-08-05T15:02:59.542Z,68.03
2022-08-05T15:05:29.793Z,69.70
2022-08-05T15:08:57.972Z,68.53
2022-08-05T15:11:11.574Z,69.28
2022-08-05T15:13:46.599Z,69.38
2022-08-05T15:16:20.120Z,68.94
2022-08-05T15:18:52.028Z,68.92
2022-08-05T15:21:22.366Z,69.36
2022-08-05T15:23:56.681Z,70.13
2022-08-05T15:26:31.706Z,69.18
2022-08-05T15:29:02.652Z,69.23
2022-08-05T15:31:34.918Z,71.13
2022-08-05T15:34:31.429Z,70.61
2022-08-05T15:36:54.660Z,69.66
2022-08-05T15:41:01.900Z,68.71
2022-08-05T15:42:50.369Z,68.39
2022-08-05T15:45:07.373Z,69.05
2022-08-05T15:47:39.670Z,69.43
2022-08-05T15:50:15.492Z,68.29
2022-08-05T15:52:52.761Z,67.82
2022-08-05T15:56:01.380Z,68.43
2022-08-05T15:58:17.528Z,68.32
2022-08-05T16:00:50.955Z,68.22
2022-08-05T16:03:34.396Z,65.62
2022-08-05T16:06:04.742Z,65.16
2022-08-05T16:08:34.683Z,64.66
2022-08-05T16:11:07.952Z,63.17
2022-08-05T16:13:38.022Z,65.02
2022-08-05T16:16:10.717Z,64.19
2022-08-05T16:18:52.314Z,65.57
2022-08-05T16:21:58.844Z,64.99
2022-08-05T16:24:39.507Z,65.20
2022-08-05T16:27:07.337Z,65.69
2022-08-05T16:29:37.977Z,65.29
2022-08-05T16:32:09.949Z,66.34
2022-08-05T16:34:41.715Z,66.41
2022-08-05T16:38:02.383Z,66.46
2022-08-05T16:40:06.133Z,65.43
2022-08-05T16:42:39.467Z,65.09
2022-08-05T16:46:05.266Z,64.38
2022-08-05T16:48:02.977Z,64.11
2022-08-05T16:50:32.935Z,63.68
2022-08-05T16:53:12.283Z,64.34
2022-08-05T16:55:52.048Z,65.93
2022-08-05T16:58:24.364Z,65.86
2022-08-05T17:00:55.335Z,66.12
2022-08-05T17:03:25.186Z,66.46
2022-08-05T17:05:59.499Z,67.20
2022-08-05T17:08:36.458Z,66.98
2022-08-05T17:11:19.386Z,66.04
2022-08-05T17:13:51.731Z,64.37
2022-08-05T17:16:33.349Z,64.39
2022-08-05T17:19:07.828Z,64.89
2022-08-05T17:21:40.714Z,64.63
2022-08-05T17:24:28.255Z,64.27
2022-08-05T17:27:01.753Z,65.79
2022-08-05T17:29:41.084Z,66.07
2022-08-05T17:32:17.319Z,65.80
2022-08-05T17:34:48.470Z,65.69
2022-08-05T17:37:39.824Z,66.96
2022-08-05T17:40:12.794Z,67.03
2022-08-05T17:42:50.976Z,66.40
2022-08-05T17:45:38.292Z,66.56
2022-08-05T17:48:09.204Z,66.83
2022-08-05T17:50:40.953Z,66.32
2022-08-05T17:53:11.180Z,65.96
2022-08-05T17:55:41.574Z,66.05
2022-08-05T17:58:13.346Z,66.28
2022-08-05T18:00:50.746Z,67.53
2022-08-05T18:06:15.477Z,67.92
2022-08-05T18:08:52.685Z,67.59
2022-08-05T18:11:32.559Z,68.42
2022-08-05T18:14:06.671Z,68.60
2022-08-05T18:16:43.719Z,68.83
2022-08-05T18:19:22.639Z,68.68
2022-08-05T18:22:08.832Z,68.78
2022-08-05T18:24:40.935Z,68.48
2022-08-05T18:27:18.627Z,67.64
2022-08-05T18:29:54.201Z,68.49
2022-08-05T18:32:28.214Z,68.69
2022-08-05T18:34:59.758Z,69.64
2022-08-05T18:37:34.399Z,69.99
2022-08-05T18:40:34.477Z,70.03
2022-08-05T18:43:02.570Z,69.79
2022-08-05T18:45:41.732Z,70.48
2022-08-05T18:48:30.785Z,70.39
2022-08-05T18:52:06.505Z,70.62
2022-08-05T18:54:05.647Z,70.87
2022-08-05T18:56:35.451Z,70.78
2022-08-05T18:59:44.356Z,71.09
2022-08-05T19:01:57.278Z,71.33
2022-08-05T19:04:31.183Z,71.22
2022-08-05T19:07:02.691Z,71.60
2022-08-05T19:09:39.181Z,71.32
2022-08-05T19:12:11.529Z,71.68
2022-08-05T19:15:00.722Z,71.65
2022-08-05T19:17:59.476Z,72.40
2022-08-05T19:20:23.902Z,72.83
2022-08-05T19:22:53.623Z,73.11
2022-08-05T19:25:30.076Z,73.46
2022-08-05T19:28:00.485Z,73.44
2022-08-05T19:30:30.476Z,73.86
2022-08-05T19:33:00.242Z,74.20
2022-08-05T19:35:56.709Z,74.82
2022-08-05T19:38:26.821Z,74.99
2022-08-05T19:40:56.676Z,75.22
2022-08-05T19:44:04.134Z,75.39
2022-08-05T19:46:16.820Z,75.29
2022-08-05T19:49:01.207Z,75.54
2022-08-05T19:52:04.589Z,75.77
2022-08-05T19:54:31.153Z,75.79
2022-08-05T19:57:02.600Z,76.00
2022-08-05T19:59:54.764Z,75.67
2022-08-05T20:02:27.091Z,76.05
2022-08-05T20:04:58.407Z,76.18
2022-08-05T20:07:38.925Z,76.31
2022-08-05T20:10:22.371Z,76.85
2022-08-05T20:12:55.214Z,77.24
2022-08-05T20:15:51.723Z,78.21
2022-08-05T20:18:33.699Z,78.58
2022-08-05T20:21:06.496Z,79.07
2022-08-05T20:23:51.353Z,79.07
2022-08-05T20:26:25.294Z,79.63
2022-08-05T20:28:57.616Z,79.68
2022-08-05T20:31:42.738Z,80.01
2022-08-05T20:34:21.251Z,79.84
2022-08-05T20:36:52.909Z,80.03
2022-08-05T20:39:25.922Z,80.06
2022-08-05T20:42:05.633Z,80.19
2022-08-05T20:44:38.224Z,80.62
2022-08-05T20:47:09.583Z,80.77
2022-08-05T20:49:40.470Z,81.11
2022-08-05T20:52:12.216Z,81.16
2022-08-05T20:55:15.904Z,81.35
2022-08-05T20:57:43.301Z,81.46
2022-08-05T21:00:40.941Z,81.67
2022-08-05T21:03:08.370Z,81.75
2022-08-05T21:05:53.637Z,81.97
2022-08-05T21:08:26.505Z,82.14
2022-08-05T21:11:00.323Z,82.26
2022-08-05T21:13:47.896Z,82.17
2022-08-05T21:16:22.354Z,81.93
2022-08-05T21:19:00.444Z,81.85
2022-08-05T21:21:39.230Z,81.88
2022-08-05T21:24:15.386Z,82.00
2022-08-05T21:26:58.026Z,81.70
2022-08-05T21:29:31.913Z,81.59
2022-08-05T21:32:02.631Z,81.59
2022-08-05T21:34:33.070Z,81.92
2022-08-05T21:37:05.484Z,82.04
2022-08-05T21:39:40.323Z,82.20
2022-08-05T21:42:30.626Z,82.07
2022-08-05T21:45:03.693Z,82.01
2022-08-05T21:47:57.231Z,81.95
2022-08-05T21:50:23.557Z,81.83
2022-08-05T21:52:53.349Z,81.96
2022-08-05T21:56:01.441Z,81.93
2022-08-05T21:58:15.788Z,82.14
2022-08-05T22:00:51.245Z,82.10
2022-08-05T22:03:48.529Z,82.04
2022-08-05T22:06:11.242Z,82.20
2022-08-05T22:08:42.534Z,81.84
2022-08-05T22:11:15.440Z,81.89
2022-08-05T22:14:33.778Z,81.98
2022-08-05T22:16:51.704Z,81.86
2022-08-05T22:20:02.847Z,81.85
2022-08-05T22:22:14.513Z,81.74
2022-08-05T22:24:56.850Z,81.90
2022-08-05T22:28:08.177Z,81.80
2022-08-05T22:30:55.287Z,82.18
2022-08-05T22:33:58.003Z,82.36
2022-08-05T22:36:17.850Z,82.25
2022-08-05T22:38:49.360Z,82.56
2022-08-05T22:42:04.946Z,82.56
2022-08-05T22:44:11.999Z,82.49
2022-08-05T22:46:45.170Z,82.84
2022-08-05T22:49:56.265Z,82.99
2022-08-05T22:52:15.459Z,83.31
2022-08-05T22:54:55.590Z,83.25
2022-08-05T22:57:25.731Z,83.49
2022-08-05T22:59:56.238Z,83.27
2022-08-05T23:02:30.146Z,83.38
2022-08-05T23:05:01.465Z,83.46
2022-08-05T23:07:45.068Z,83.61
2022-08-05T23:10:19.732Z,83.49
2022-08-05T23:12:51.374Z,83.46
2022-08-05T23:15:29.241Z,83.63
2022-08-05T23:18:03.195Z,83.31
2022-08-05T23:20:37.374Z,83.18
2022-08-05T23:23:08.800Z,83.03
2022-08-05T23:25:52.145Z,83.05
2022-08-05T23:28:28.626Z,82.70
2022-08-05T23:31:02.350Z,82.76
2022-08-05T23:34:05.867Z,82.45
2022-08-05T23:36:40.178Z,82.41
2022-08-05T23:39:16.621Z,82.57
2022-08-05T23:41:53.943Z,82.48
2022-08-05T23:44:27.807Z,82.37
2022-08-05T23:47:02.305Z,82.38
2022-08-05T23:49:43.234Z,82.57
2022-08-05T23:52:28.363Z,82.64
2022-08-05T23:54:59.801Z,82.34
2022-08-05T23:57:30.208Z,82.26
